createdAt,value
2018-11-21T00:02:19.492Z,100481.17
2018-11-21T00:04:47.553Z,100488.70
2018-11-21T00:07:15.481Z,100484.90
2018-11-21T00:09:43.428Z,100485.85
2018-11-21T00:12:11.691Z,100495.80
2018-11-21T00:14:39.964Z,100495.23
2018-11-21T00:17:07.902Z,100492.47
2018-11-21T00:19:35.856Z,100488.30
2018-11-21T00:22:03.810Z,100493.59
2018-11-21T00:24:32.144Z,100495.63
2018-11-21T00:27:00.359Z,100510.45
2018-11-21T00:29:28.593Z,100510.80
2018-11-21T00:31:56.869Z,100504.48
2018-11-21T00:34:25.066Z,100509.75
2018-11-21T00:36:53.370Z,100515.36
2018-11-21T00:39:21.996Z,100522.50
2018-11-21T00:41:49.991Z,100518.19
2018-11-21T00:44:18.273Z,100518.28
2018-11-21T00:46:46.605Z,100517.28
2018-11-21T00:49:14.521Z,100517.77
2018-11-21T00:51:42.765Z,100503.44
2018-11-21T00:54:11.068Z,100503.27
2018-11-21T00:56:38.986Z,100497.53
2018-11-21T00:59:06.918Z,100496.75
2018-11-21T01:01:35.202Z,100500.92
2018-11-21T01:04:03.117Z,100498.28
2018-11-21T01:06:31.390Z,100503.55
2018-11-21T01:08:59.589Z,100504.39
2018-11-21T01:11:27.549Z,100509.13
2018-11-21T01:13:56.264Z,100517.41
2018-11-21T01:16:24.460Z,100536.17
2018-11-21T01:18:52.732Z,100540.77
2018-11-21T01:21:20.955Z,100545.03
2018-11-21T01:23:48.855Z,100550.95
2018-11-21T01:26:17.123Z,100554.73
2018-11-21T01:28:45.404Z,100559.76
2018-11-21T01:31:13.633Z,100557.28
2018-11-21T01:33:42.208Z,100560.75
2018-11-21T01:36:10.112Z,100559.53
2018-11-21T01:38:38.391Z,100556.70
2018-11-21T01:41:06.311Z,100556.67
2018-11-21T01:43:34.641Z,100559.27
2018-11-21T01:46:02.584Z,100569.28
2018-11-21T01:48:30.836Z,100581.92
2018-11-21T01:50:58.795Z,100585.08
2018-11-21T01:53:27.408Z,100579.69
2018-11-21T01:55:55.326Z,100579.45
2018-11-21T01:58:23.262Z,100581.25
2018-11-21T02:00:51.524Z,100591.48
2018-11-21T02:03:19.460Z,100584.75
2018-11-21T02:05:47.399Z,100573.53
2018-11-21T02:08:15.348Z,100577.67
2018-11-21T02:10:43.290Z,100587.81
2018-11-21T02:13:11.564Z,100592.85
2018-11-21T02:15:39.502Z,100594.48
2018-11-21T02:18:08.100Z,100592.56
2018-11-21T02:20:36.108Z,100593.97
2018-11-21T02:23:04.673Z,100595.51
2018-11-21T02:25:33.024Z,100600.17
2018-11-21T02:28:01.020Z,100600.19
2018-11-21T02:30:28.994Z,100607.98
2018-11-21T02:32:56.968Z,100604.88
2018-11-21T02:35:24.941Z,100606.03
2018-11-21T02:37:52.874Z,100601.73
2018-11-21T02:40:20.844Z,100597.25
2018-11-21T02:42:49.143Z,100601.20
2018-11-21T02:45:17.081Z,100610.58
2018-11-21T02:47:45.342Z,100626.09
2018-11-21T02:50:13.549Z,100628.76
2018-11-21T02:52:41.456Z,100637.27
2018-11-21T02:55:09.666Z,100636.98
2018-11-21T02:57:37.610Z,100636.53
2018-11-21T03:00:13.964Z,100633.30
2018-11-21T03:02:42.223Z,100620.73
2018-11-21T03:05:10.420Z,100625.81
2018-11-21T03:07:57.839Z,100622.50
2018-11-21T03:10:26.657Z,100620.49
2018-11-21T03:12:54.802Z,100632.06
2018-11-21T03:15:23.045Z,100646.86
2018-11-21T03:18:10.088Z,100644.19
2018-11-21T03:20:38.624Z,100650.17
2018-11-21T03:23:25.676Z,100649.28
2018-11-21T03:25:53.588Z,100649.28
2018-11-21T03:28:41.108Z,100650.64
2018-11-21T03:31:08.988Z,100654.97
2018-11-21T03:33:37.222Z,100646.48
2018-11-21T03:36:24.301Z,100654.63
2018-11-21T03:38:52.234Z,100660.13
2018-11-21T03:41:20.135Z,100673.20
2018-11-21T03:43:48.027Z,100671.66
2018-11-21T03:46:35.430Z,100676.93
2018-11-21T03:49:03.682Z,100687.81
2018-11-21T03:51:51.034Z,100691.15
2018-11-21T03:54:19.277Z,100699.11
2018-11-21T03:57:06.363Z,100702.11
2018-11-21T03:59:34.587Z,100700.14
2018-11-21T04:02:21.651Z,100694.55
2018-11-21T04:05:08.720Z,100686.69
2018-11-21T04:07:36.844Z,100687.33
2018-11-21T04:10:07.938Z,100680.48
2018-11-21T04:12:35.899Z,100682.11
2018-11-21T04:15:23.545Z,100683.22
2018-11-21T04:17:51.799Z,100674.56
2018-11-21T04:20:39.136Z,100673.77
2018-11-21T04:23:26.189Z,100694.13
2018-11-21T04:26:13.538Z,100708.80
2018-11-21T04:28:41.740Z,100717.60
2018-11-21T04:31:09.934Z,100715.62
2018-11-21T04:33:57.002Z,100719.60
2018-11-21T04:36:44.080Z,100719.16
2018-11-21T04:39:12.673Z,100711.63
2018-11-21T04:41:59.743Z,100716.64
2018-11-21T04:44:27.664Z,100728.61
2018-11-21T04:47:15.044Z,100735.95
2018-11-21T04:49:42.973Z,100739.90
2018-11-21T04:52:11.238Z,100745.21
2018-11-21T04:54:58.618Z,100740.16
2018-11-21T04:57:45.988Z,100742.58
2018-11-21T05:00:33.103Z,100746.48
2018-11-21T05:03:20.501Z,100740.89
2018-11-21T05:05:48.722Z,100736.17
2018-11-21T05:08:16.652Z,100738.95
2018-11-21T05:10:44.587Z,100751.08
2018-11-21T05:13:31.668Z,100748.36
2018-11-21T05:16:00.226Z,100751.16
2018-11-21T05:18:47.291Z,100746.97
2018-11-21T05:21:34.739Z,100752.52
2018-11-21T05:24:22.088Z,100755.64
2018-11-21T05:26:50.311Z,100755.06
2018-11-21T05:29:18.247Z,100758.34
2018-11-21T05:32:05.317Z,100761.77
2018-11-21T05:34:33.628Z,100763.45
2018-11-21T05:37:21.003Z,100760.41
2018-11-21T05:39:48.928Z,100764.17
2018-11-21T05:42:36.316Z,100775.38
2018-11-21T05:45:04.798Z,100772.22
2018-11-21T05:47:51.912Z,100774.43
2018-11-21T05:50:19.843Z,100775.20
2018-11-21T05:53:06.977Z,100788.63
2018-11-21T05:55:54.033Z,100787.39
2018-11-21T05:58:21.960Z,100783.80
2018-11-21T06:00:49.861Z,100791.48
2018-11-21T06:03:17.783Z,100797.81
2018-11-21T06:06:09.942Z,100793.98
2018-11-21T06:08:32.763Z,100804.30
2018-11-21T06:11:19.848Z,100811.00
2018-11-21T06:13:47.744Z,100826.37
2018-11-21T06:16:15.974Z,100822.19
2018-11-21T06:19:03.375Z,100832.73
2018-11-21T06:21:31.858Z,100829.31
2018-11-21T06:24:18.922Z,100828.55
2018-11-21T06:27:11.250Z,100822.88
2018-11-21T06:29:58.606Z,100839.04
2018-11-21T06:32:45.659Z,100828.28
2018-11-21T06:35:14.047Z,100835.27
2018-11-21T06:37:41.959Z,100842.28
2018-11-21T06:40:12.351Z,100846.78
2018-11-21T06:42:40.906Z,100852.86
2018-11-21T06:45:09.606Z,100853.30
2018-11-21T06:47:37.535Z,100857.78
2018-11-21T06:50:06.119Z,100869.86
2018-11-21T06:52:34.019Z,100873.69
2018-11-21T06:55:01.930Z,100875.54
2018-11-21T06:57:30.473Z,100877.04
2018-11-21T06:59:58.728Z,100877.91
2018-11-21T07:02:26.647Z,100874.29
2018-11-21T07:05:14.018Z,100887.66
2018-11-21T07:07:42.498Z,100893.89
2018-11-21T07:10:29.895Z,100894.76
2018-11-21T07:12:58.455Z,100899.53
2018-11-21T07:15:26.362Z,100906.55
2018-11-21T07:17:54.268Z,100905.17
2018-11-21T07:20:22.617Z,100908.25
2018-11-21T07:22:50.575Z,100911.00
2018-11-21T07:25:20.300Z,100913.97
2018-11-21T07:27:48.252Z,100910.06
2018-11-21T07:30:16.874Z,100910.06
2018-11-21T07:32:45.129Z,100918.73
2018-11-21T07:35:17.816Z,100923.34
2018-11-21T07:37:42.287Z,100921.37
2018-11-21T07:40:11.971Z,100922.41
2018-11-21T07:42:40.332Z,100926.98
2018-11-21T07:45:09.820Z,100930.33
2018-11-21T07:47:38.876Z,100935.37
2018-11-21T07:50:09.579Z,100938.02
2018-11-21T07:52:37.493Z,100943.07
2018-11-21T07:55:05.938Z,100938.69
2018-11-21T07:57:35.358Z,100945.59
2018-11-21T08:01:01.317Z,100950.28
2018-11-21T08:03:48.390Z,100957.66
2018-11-21T08:06:19.010Z,100961.49
2018-11-21T08:09:06.090Z,100963.11
2018-11-21T08:11:53.506Z,100965.18
2018-11-21T08:14:40.574Z,100966.09
2018-11-21T08:17:27.678Z,100971.66
2018-11-21T08:20:14.733Z,100970.05
2018-11-21T08:22:54.471Z,100972.14
2018-11-21T08:25:38.317Z,100983.86
2018-11-21T08:28:25.373Z,100988.65
2018-11-21T08:30:53.631Z,100992.31
2018-11-21T08:33:21.535Z,100991.28
2018-11-21T08:35:49.789Z,100990.22
2018-11-21T08:38:17.776Z,100991.72
2018-11-21T08:40:45.987Z,100985.77
2018-11-21T08:43:14.193Z,100984.91
2018-11-21T08:46:01.259Z,100976.80
2018-11-21T08:48:29.162Z,100982.48
2018-11-21T08:50:57.047Z,100992.48
2018-11-21T08:53:44.124Z,101002.43
2018-11-21T08:56:12.023Z,101003.48
2018-11-21T08:58:40.308Z,101008.68
2018-11-21T09:01:08.558Z,101013.74
2018-11-21T09:03:36.528Z,101007.91
2018-11-21T09:06:04.768Z,101008.98
2018-11-21T09:08:32.695Z,100998.92
2018-11-21T09:11:00.639Z,101019.50
2018-11-21T09:13:28.572Z,101038.79
2018-11-21T09:15:56.524Z,101031.30
2018-11-21T09:18:24.525Z,101044.95
2018-11-21T09:20:52.427Z,101045.70
2018-11-21T09:23:20.369Z,101046.15
2018-11-21T09:25:48.272Z,101059.41
2018-11-21T09:28:16.529Z,101061.82
2018-11-21T09:30:44.507Z,101059.64
2018-11-21T09:33:12.420Z,101057.59
2018-11-21T09:35:40.368Z,101053.84
2018-11-21T09:38:08.325Z,101062.19
2018-11-21T09:40:36.681Z,101067.08
2018-11-21T09:43:04.924Z,101063.28
2018-11-21T09:45:33.141Z,101069.84
2018-11-21T09:48:01.110Z,101068.63
2018-11-21T09:50:30.551Z,101073.16
2018-11-21T09:52:58.831Z,101073.66
2018-11-21T09:55:26.786Z,101079.45
2018-11-21T09:57:55.079Z,101076.95
2018-11-21T10:00:59.697Z,101084.20
2018-11-21T10:03:29.174Z,101095.27
2018-11-21T10:06:08.913Z,101097.72
2018-11-21T10:08:50.713Z,101114.89
2018-11-21T10:11:18.973Z,101102.27
2018-11-21T10:13:46.891Z,101101.67
2018-11-21T10:16:15.138Z,101095.96
2018-11-21T10:18:44.715Z,101097.86
2018-11-21T10:21:14.311Z,101096.77
2018-11-21T10:23:42.289Z,101086.23
2018-11-21T10:26:10.224Z,101080.28
2018-11-21T10:28:38.528Z,101084.04
2018-11-21T10:31:07.337Z,101084.69
2018-11-21T10:33:35.289Z,101087.97
2018-11-21T10:36:03.620Z,101088.06
2018-11-21T10:38:31.538Z,101082.92
2018-11-21T10:40:59.906Z,101075.16
2018-11-21T10:43:28.453Z,101081.36
2018-11-21T10:45:55.784Z,101073.04
2018-11-21T10:48:23.726Z,101076.86
2018-11-21T10:50:51.631Z,101086.42
2018-11-21T10:53:19.646Z,101097.86
2018-11-21T10:55:47.583Z,101102.03
2018-11-21T10:58:15.497Z,101103.05
2018-11-21T11:01:01.187Z,101102.63
2018-11-21T11:03:34.456Z,101093.60
2018-11-21T11:06:16.331Z,101088.02
2018-11-21T11:09:02.002Z,101090.86
2018-11-21T11:11:55.339Z,101094.59
2018-11-21T11:14:51.238Z,101087.02
2018-11-21T11:17:36.876Z,101084.63
2018-11-21T11:20:19.828Z,101082.78
2018-11-21T11:23:05.849Z,101085.21
2018-11-21T11:25:48.658Z,101097.00
2018-11-21T11:28:34.295Z,101106.59
2018-11-21T11:31:19.807Z,101111.05
2018-11-21T11:34:05.613Z,101101.05
2018-11-21T11:37:01.920Z,101112.11
2018-11-21T11:39:43.931Z,101117.48
2018-11-21T11:42:43.024Z,101122.05
2018-11-21T11:45:32.959Z,101125.60
2018-11-21T11:48:19.616Z,101121.13
2018-11-21T11:51:06.697Z,101110.89
2018-11-21T11:53:52.487Z,101105.00
2018-11-21T11:56:29.822Z,101101.17
2018-11-21T11:59:15.311Z,101107.55
2018-11-21T12:02:13.365Z,101112.66
2018-11-21T12:05:16.797Z,101115.59
2018-11-21T12:08:04.282Z,101124.56
2018-11-21T12:10:57.498Z,101125.55
2018-11-21T12:13:47.344Z,101134.48
2018-11-21T12:16:33.128Z,101144.31
2018-11-21T12:19:18.791Z,101132.55
2018-11-21T12:22:05.893Z,101131.72
2018-11-21T12:24:51.158Z,101122.18
2018-11-21T12:27:42.492Z,101122.34
2018-11-21T12:30:32.201Z,101126.33
2018-11-21T12:33:17.795Z,101137.05
2018-11-21T12:36:19.804Z,101122.86
2018-11-21T12:39:09.469Z,101114.79
2018-11-21T12:41:55.052Z,101115.66
2018-11-21T12:44:40.900Z,101119.20
2018-11-21T12:47:36.747Z,101124.08
2018-11-21T12:50:23.807Z,101120.92
2018-11-21T12:53:16.606Z,101115.59
2018-11-21T12:56:09.514Z,101115.07
2018-11-21T12:59:14.841Z,101115.69
2018-11-21T13:02:07.687Z,101119.84
2018-11-21T13:04:56.944Z,101102.84
2018-11-21T13:07:42.882Z,101108.44
2018-11-21T13:10:38.864Z,101118.09
2018-11-21T13:13:27.121Z,101115.52
2018-11-21T13:16:12.791Z,101123.79
2018-11-21T13:19:17.894Z,101130.13
2018-11-21T13:22:05.006Z,101139.25
2018-11-21T13:24:51.490Z,101131.20
2018-11-21T13:27:29.954Z,101130.16
2018-11-21T13:30:28.912Z,101134.81
2018-11-21T13:33:16.081Z,101128.65
2018-11-21T13:35:51.549Z,101118.30
2018-11-21T13:38:42.112Z,101125.03
2018-11-21T13:41:17.291Z,101125.86
2018-11-21T13:44:07.241Z,101141.30
2018-11-21T13:46:53.019Z,101132.83
2018-11-21T13:49:32.508Z,101124.09
2018-11-21T13:52:19.624Z,101130.12
2018-11-21T13:54:55.315Z,101129.52
2018-11-21T13:57:23.291Z,101131.63
2018-11-21T13:59:51.253Z,101137.80
2018-11-21T14:02:19.129Z,101139.28
2018-11-21T14:04:47.054Z,101136.05
2018-11-21T14:07:15.288Z,101132.09
2018-11-21T14:09:43.197Z,101144.22
2018-11-21T14:12:11.146Z,101144.34
2018-11-21T14:14:39.098Z,101153.20
2018-11-21T14:17:07.141Z,101159.01
2018-11-21T14:19:35.089Z,101160.84
2018-11-21T14:22:03.004Z,101168.36
2018-11-21T14:24:31.086Z,101166.49
2018-11-21T14:26:59.235Z,101174.44
2018-11-21T14:29:27.215Z,101167.97
2018-11-21T14:31:55.455Z,101169.23
2018-11-21T14:34:24.184Z,101166.59
2018-11-21T14:36:52.456Z,101165.29
2018-11-21T14:39:20.396Z,101169.33
2018-11-21T14:41:48.882Z,101174.24
2018-11-21T14:44:16.833Z,101177.50
2018-11-21T14:46:47.020Z,101173.47
2018-11-21T14:49:14.950Z,101169.69
2018-11-21T14:51:43.165Z,101184.50
2018-11-21T14:54:11.134Z,101180.02
2018-11-21T14:56:39.036Z,101173.84
2018-11-21T14:59:06.988Z,101179.22
2018-11-21T15:01:34.988Z,101171.14
2018-11-21T15:04:02.883Z,101177.52
2018-11-21T15:06:30.794Z,101180.07
2018-11-21T15:08:58.725Z,101182.60
2018-11-21T15:11:31.301Z,101183.03
2018-11-21T15:13:59.210Z,101189.97
2018-11-21T15:16:27.109Z,101190.19
2018-11-21T15:18:55.408Z,101194.67
2018-11-21T15:21:23.320Z,101193.17
2018-11-21T15:23:51.247Z,101194.31
2018-11-21T15:26:19.185Z,101202.19
2018-11-21T15:28:47.521Z,101203.64
2018-11-21T15:31:15.422Z,101198.66
2018-11-21T15:33:43.736Z,101206.33
2018-11-21T15:36:11.661Z,101205.35
2018-11-21T15:38:39.606Z,101211.27
2018-11-21T15:41:07.598Z,101215.22
2018-11-21T15:43:35.527Z,101217.84
2018-11-21T15:46:03.507Z,101218.26
2018-11-21T15:48:31.820Z,101214.58
2018-11-21T15:50:59.803Z,101213.63
2018-11-21T15:53:27.721Z,101213.77
2018-11-21T15:55:55.985Z,101217.16
2018-11-21T15:58:23.937Z,101228.53
2018-11-21T16:00:52.103Z,101221.46
2018-11-21T16:03:20.042Z,101220.36
2018-11-21T16:05:47.957Z,101228.13
2018-11-21T16:08:16.239Z,101224.52
2018-11-21T16:10:45.550Z,101226.23
2018-11-21T16:13:13.511Z,101228.55
2018-11-21T16:15:46.335Z,101233.56
2018-11-21T16:18:14.773Z,101231.36
2018-11-21T16:20:42.984Z,101229.41
2018-11-21T16:23:10.917Z,101236.42
2018-11-21T16:25:38.830Z,101240.08
2018-11-21T16:28:06.829Z,101243.34
2018-11-21T16:30:34.755Z,101241.72
2018-11-21T16:33:02.942Z,101242.33
2018-11-21T16:35:30.879Z,101245.59
2018-11-21T16:37:58.790Z,101252.77
2018-11-21T16:40:28.425Z,101252.30
2018-11-21T16:42:57.535Z,101253.19
2018-11-21T16:45:27.396Z,101261.39
2018-11-21T16:47:55.339Z,101261.03
2018-11-21T16:50:23.322Z,101263.97
2018-11-21T16:52:51.370Z,101266.43
2018-11-21T16:55:21.012Z,101265.35
2018-11-21T16:57:49.341Z,101266.97
2018-11-21T17:00:19.101Z,101269.53
2018-11-21T17:02:47.129Z,101275.98
2018-11-21T17:05:16.554Z,101280.03
2018-11-21T17:07:44.788Z,101278.80
2018-11-21T17:10:14.739Z,101276.30
2018-11-21T17:12:43.211Z,101283.09
2018-11-21T17:15:13.347Z,101283.02
2018-11-21T17:17:41.534Z,101286.91
2018-11-21T17:20:12.539Z,101295.48
2018-11-21T17:22:40.706Z,101292.52
2018-11-21T17:25:11.448Z,101290.11
2018-11-21T17:27:39.376Z,101295.92
2018-11-21T17:30:09.553Z,101296.95
2018-11-21T17:32:37.461Z,101300.63
2018-11-21T17:35:06.345Z,101294.92
2018-11-21T17:37:34.256Z,101298.00
2018-11-21T17:40:02.208Z,101295.34
2018-11-21T17:42:30.129Z,101291.03
2018-11-21T17:44:58.094Z,101295.31
2018-11-21T17:47:26.029Z,101292.27
2018-11-21T17:49:54.029Z,101291.40
2018-11-21T17:52:21.933Z,101290.33
2018-11-21T17:54:49.854Z,101294.16
2018-11-21T17:57:17.778Z,101292.20
2018-11-21T17:59:46.035Z,101288.75
2018-11-21T18:02:13.974Z,101294.09
2018-11-21T18:04:41.942Z,101304.14
2018-11-21T18:07:09.889Z,101306.40
2018-11-21T18:09:37.827Z,101316.15
2018-11-21T18:12:05.837Z,101321.79
2018-11-21T18:14:34.047Z,101322.22
2018-11-21T18:17:01.998Z,101320.44
2018-11-21T18:19:29.939Z,101316.62
2018-11-21T18:21:57.982Z,101323.19
2018-11-21T18:24:25.928Z,101319.05
2018-11-21T18:26:54.282Z,101322.84
2018-11-21T18:29:22.217Z,101329.52
2018-11-21T18:31:50.145Z,101331.95
2018-11-21T18:34:18.702Z,101333.77
2018-11-21T18:36:46.928Z,101326.75
2018-11-21T18:39:14.905Z,101326.51
2018-11-21T18:41:42.809Z,101326.95
2018-11-21T18:44:10.939Z,101324.13
2018-11-21T18:46:38.917Z,101325.22
2018-11-21T18:49:06.889Z,101319.46
2018-11-21T18:51:34.827Z,101326.31
2018-11-21T18:54:02.760Z,101325.65
2018-11-21T18:56:34.121Z,101329.47
2018-11-21T18:59:06.493Z,101325.73
2018-11-21T19:01:34.771Z,101332.13
2018-11-21T19:04:02.753Z,101332.45
2018-11-21T19:06:30.751Z,101338.03
2018-11-21T19:08:58.652Z,101332.33
2018-11-21T19:11:26.557Z,101335.33
2018-11-21T19:13:54.513Z,101339.14
2018-11-21T19:16:22.741Z,101341.58
2018-11-21T19:18:50.755Z,101342.53
2018-11-21T19:21:18.684Z,101338.84
2018-11-21T19:23:46.936Z,101335.09
2018-11-21T19:26:15.244Z,101331.00
2018-11-21T19:28:43.148Z,101331.00
2018-11-21T19:31:11.468Z,101329.84
2018-11-21T19:33:39.424Z,101337.23
2018-11-21T19:36:07.734Z,101327.33
2018-11-21T19:38:35.664Z,101337.55
2018-11-21T19:41:04.788Z,101327.39
2018-11-21T19:43:32.706Z,101329.77
2018-11-21T19:46:00.648Z,101325.36
2018-11-21T19:48:28.674Z,101323.91
2018-11-21T19:50:56.851Z,101331.80
2018-11-21T19:53:25.238Z,101329.58
2018-11-21T19:55:53.185Z,101331.34
2018-11-21T19:58:21.098Z,101339.66
2018-11-21T20:00:49.032Z,101334.91
2018-11-21T20:03:16.989Z,101342.78
2018-11-21T20:05:46.101Z,101340.73
2018-11-21T20:08:14.008Z,101342.84
2018-11-21T20:10:42.129Z,101338.87
2018-11-21T20:13:10.152Z,101345.91
2018-11-21T20:15:38.400Z,101344.12
2018-11-21T20:18:06.374Z,101344.04
2018-11-21T20:20:34.992Z,101346.05
2018-11-21T20:23:06.527Z,101341.77
2018-11-21T20:25:31.311Z,101344.23
2018-11-21T20:27:59.222Z,101346.06
2018-11-21T20:30:31.880Z,101350.77
2018-11-21T20:32:59.855Z,101346.05
2018-11-21T20:35:28.056Z,101347.79
2018-11-21T20:37:56.026Z,101342.03
2018-11-21T20:40:25.707Z,101342.95
2018-11-21T20:42:53.992Z,101342.52
2018-11-21T20:45:23.573Z,101336.95
2018-11-21T20:47:52.911Z,101341.71
2018-11-21T20:50:20.894Z,101339.14
2018-11-21T20:52:49.224Z,101343.36
2018-11-21T20:55:18.227Z,101339.52
2018-11-21T20:57:46.259Z,101334.50
2018-11-21T21:00:15.919Z,101339.80
2018-11-21T21:02:43.830Z,101337.32
2018-11-21T21:05:12.967Z,101340.36
2018-11-21T21:07:41.631Z,101338.97
2018-11-21T21:10:11.561Z,101334.74
2018-11-21T21:12:39.916Z,101339.97
2018-11-21T21:15:09.476Z,101333.25
2018-11-21T21:17:37.552Z,101337.08
2018-11-21T21:20:08.567Z,101337.16
2018-11-21T21:22:36.883Z,101339.20
2018-11-21T21:25:06.657Z,101338.73
2018-11-21T21:27:34.943Z,101333.09
2018-11-21T21:30:03.002Z,101330.23
2018-11-21T21:32:30.939Z,101328.87
2018-11-21T21:34:58.985Z,101326.63
2018-11-21T21:37:27.220Z,101328.77
2018-11-21T21:39:55.590Z,101327.81
2018-11-21T21:42:23.545Z,101329.05
2018-11-21T21:44:52.175Z,101323.91
2018-11-21T21:47:20.077Z,101326.89
2018-11-21T21:49:48.360Z,101328.72
2018-11-21T21:52:16.287Z,101332.58
2018-11-21T21:54:44.566Z,101323.64
2018-11-21T21:57:12.525Z,101330.47
2018-11-21T21:59:41.098Z,101330.36
2018-11-21T22:02:10.149Z,101329.19
2018-11-21T22:04:38.394Z,101334.12
2018-11-21T22:07:07.965Z,101331.45
2018-11-21T22:09:35.902Z,101331.70
2018-11-21T22:12:03.996Z,101330.75
2018-11-21T22:14:32.238Z,101325.39
2018-11-21T22:17:00.152Z,101330.89
2018-11-21T22:19:28.083Z,101330.77
2018-11-21T22:21:56.315Z,101327.88
2018-11-21T22:24:24.225Z,101330.69
2018-11-21T22:26:52.191Z,101328.30
2018-11-21T22:29:20.432Z,101335.50
2018-11-21T22:31:48.370Z,101336.77
2018-11-21T22:34:16.300Z,101336.58
2018-11-21T22:36:44.966Z,101339.50
2018-11-21T22:39:13.726Z,101334.70
2018-11-21T22:41:41.940Z,101339.13
2018-11-21T22:44:10.247Z,101335.92
2018-11-21T22:46:38.156Z,101338.81
2018-11-21T22:49:06.061Z,101337.55
2018-11-21T22:51:34.084Z,101335.59
2018-11-21T22:54:02.057Z,101337.03
2018-11-21T22:56:30.000Z,101338.44
2018-11-21T22:58:57.961Z,101341.80
2018-11-21T23:01:30.493Z,101341.03
2018-11-21T23:03:58.431Z,101337.75
2018-11-21T23:06:26.368Z,101341.51
2018-11-21T23:08:54.642Z,101338.66
2018-11-21T23:11:22.579Z,101338.45
2018-11-21T23:13:50.845Z,101337.24
2018-11-21T23:16:19.103Z,101335.13
2018-11-21T23:18:47.031Z,101336.36
2018-11-21T23:21:15.332Z,101343.13
2018-11-21T23:23:43.226Z,101342.08
2018-11-21T23:26:11.175Z,101339.64
2018-11-21T23:28:39.122Z,101337.02
2018-11-21T23:31:07.320Z,101339.13
2018-11-21T23:33:35.242Z,101338.72
2018-11-21T23:36:03.535Z,101346.84
2018-11-21T23:38:31.833Z,101344.98
2018-11-21T23:40:59.805Z,101343.35
2018-11-21T23:43:27.709Z,101341.02
2018-11-21T23:45:55.652Z,101339.46
2018-11-21T23:48:23.586Z,101339.52
2018-11-21T23:50:51.506Z,101342.45
2018-11-21T23:53:19.416Z,101341.62
2018-11-21T23:55:47.633Z,101342.37
2018-11-21T23:58:15.551Z,101341.83
